Time;durP1;ratioP1;P1;durP2;ratioP2;P2;SDS_P1;SDS_P2;PMS_P1;PMS_P2;Temp;Humidity;BMP_temperature;BMP_pressure;BME280_temperature;BME280_humidity;BME280_pressure;Samples;Min_cycle;Max_cycle;Signal;HPM_P1;HPM_P2
2023/01/25 00:01:44;;;;;;;24.67;16.73;;;;;;;;;;5020323;28;20184;-68
2023/01/25 00:04:09;;;;;;;23.90;16.20;;;;;;;;;;5024257;28;20617;-67
2023/01/25 00:06:35;;;;;;;24.03;16.60;;;;;;;;;;5026472;28;20193;-67
2023/01/25 00:09:00;;;;;;;24.70;16.27;;;;;;;;;;5031544;28;20189;-67
2023/01/25 00:11:26;;;;;;;24.10;16.40;;;;;;;;;;5028788;28;20301;-67
2023/01/25 00:13:55;;;;;;;22.87;16.40;;;;;;;;;;5028284;28;20248;-67
2023/01/25 00:16:22;;;;;;;23.27;16.10;;;;;;;;;;5029412;28;20280;-67
2023/01/25 00:18:49;;;;;;;26.80;17.20;;;;;;;;;;5031863;28;20200;-67
2023/01/25 00:21:20;;;;;;;24.43;16.93;;;;;;;;;;5029968;28;20189;-67
2023/01/25 00:23:46;;;;;;;23.77;16.17;;;;;;;;;;5028228;28;20194;-67
2023/01/25 00:26:12;;;;;;;24.57;16.10;;;;;;;;;;5028712;28;20596;-67
2023/01/25 00:28:38;;;;;;;25.90;17.40;;;;;;;;;;4992772;28;20232;-67
2023/01/25 00:31:06;;;;;;;26.00;17.00;;;;;;;;;;5021529;28;20236;-67
2023/01/25 00:33:36;;;;;;;24.90;16.80;;;;;;;;;;5025469;28;20265;-67
2023/01/25 00:36:21;;;;;;;25.57;17.03;;;;;;;;;;5024295;28;20198;-69
2023/01/25 00:38:46;;;;;;;26.37;17.03;;;;;;;;;;5029856;28;20197;-68
2023/01/25 00:41:12;;;;;;;28.43;17.27;;;;;;;;;;5028182;28;20190;-68
2023/01/25 00:43:37;;;;;;;24.27;16.57;;;;;;;;;;5032476;28;20646;-67
2023/01/25 00:46:03;;;;;;;23.33;15.47;;;;;;;;;;5025998;28;20193;-67
2023/01/25 00:48:28;;;;;;;27.20;17.33;;;;;;;;;;5044406;28;20247;-67
2023/01/25 00:50:53;;;;;;;27.47;17.00;;;;;;;;;;5029777;28;20736;-68
2023/01/25 00:53:19;;;;;;;26.83;16.90;;;;;;;;;;5030397;28;20217;-68
2023/01/25 00:55:51;;;;;;;26.87;17.03;;;;;;;;;;5023112;28;20227;-67
2023/01/25 00:58:17;;;;;;;29.13;17.63;;;;;;;;;;5011895;28;20182;-68
2023/01/25 01:00:42;;;;;;;26.07;17.03;;;;;;;;;;5022711;28;20280;-67
2023/01/25 01:03:07;;;;;;;27.63;16.13;;;;;;;;;;5028110;28;20193;-67
2023/01/25 01:05:35;;;;;;;27.63;17.33;;;;;;;;;;5029891;28;20261;-67
2023/01/25 01:08:00;;;;;;;28.67;17.20;;;;;;;;;;5028303;28;20190;-67
2023/01/25 01:10:26;;;;;;;28.33;17.40;;;;;;;;;;5017781;28;20214;-67
2023/01/25 01:12:51;;;;;;;27.70;17.07;;;;;;;;;;5027496;28;20190;-67
2023/01/25 01:15:17;;;;;;;25.57;16.23;;;;;;;;;;5027678;28;20197;-67
2023/01/25 01:17:42;;;;;;;27.03;17.13;;;;;;;;;;5030657;28;20201;-67
2023/01/25 01:20:08;;;;;;;28.77;18.43;;;;;;;;;;5026794;28;20559;-67
2023/01/25 01:22:33;;;;;;;28.63;17.30;;;;;;;;;;5025106;28;20277;-67
2023/01/25 01:24:59;;;;;;;28.67;17.47;;;;;;;;;;5026197;28;20202;-67
2023/01/25 01:27:24;;;;;;;27.83;17.73;;;;;;;;;;5014414;28;20320;-67
2023/01/25 01:29:49;;;;;;;30.77;18.20;;;;;;;;;;5021593;28;20244;-67
2023/01/25 01:32:15;;;;;;;32.13;18.10;;;;;;;;;;5021836;28;20225;-67
2023/01/25 01:34:40;;;;;;;30.13;18.43;;;;;;;;;;5022803;28;20268;-68
2023/01/25 01:37:05;;;;;;;31.47;18.87;;;;;;;;;;5021548;28;20203;-67
2023/01/25 01:39:31;;;;;;;30.80;18.13;;;;;;;;;;5022094;28;20411;-67
2023/01/25 01:41:56;;;;;;;30.43;17.87;;;;;;;;;;5025276;28;20629;-67
2023/01/25 01:44:45;;;;;;;31.80;18.40;;;;;;;;;;5027095;28;20186;-67
2023/01/25 01:47:32;;;;;;;31.03;17.73;;;;;;;;;;5043723;28;20188;-67
2023/01/25 01:50:04;;;;;;;30.97;17.23;;;;;;;;;;5029051;28;20264;-67
2023/01/25 01:52:33;;;;;;;31.73;17.90;;;;;;;;;;5020692;28;20213;-67
2023/01/25 01:55:07;;;;;;;32.73;19.00;;;;;;;;;;5035839;28;20193;-67
2023/01/25 01:57:57;;;;;;;35.27;19.13;;;;;;;;;;5033137;28;20185;-68
2023/01/25 02:00:28;;;;;;;31.97;17.93;;;;;;;;;;5025941;28;20241;-68
2023/01/25 02:02:54;;;;;;;33.20;18.47;;;;;;;;;;5021239;28;20257;-67
2023/01/25 02:05:42;;;;;;;31.87;18.10;;;;;;;;;;5023643;28;20273;-68
2023/01/25 02:08:11;;;;;;;31.33;18.30;;;;;;;;;;5021599;28;20532;-69
2023/01/25 02:10:37;;;;;;;34.07;18.93;;;;;;;;;;5024293;28;20202;-66
2023/01/25 02:13:03;;;;;;;34.00;19.87;;;;;;;;;;5024734;28;20200;-69
2023/01/25 02:15:40;;;;;;;35.90;19.70;;;;;;;;;;5026511;28;20194;-67
2023/01/25 02:18:08;;;;;;;34.07;19.10;;;;;;;;;;5011288;28;20277;-67
2023/01/25 02:20:39;;;;;;;36.70;19.77;;;;;;;;;;5037310;28;20647;-68
2023/01/25 02:23:04;;;;;;;32.40;19.23;;;;;;;;;;5026740;28;20190;-68
2023/01/25 02:25:30;;;;;;;30.90;18.53;;;;;;;;;;5031134;28;20227;-67
2023/01/25 02:28:05;;;;;;;34.70;19.77;;;;;;;;;;5038351;28;20594;-68
2023/01/25 02:30:31;;;;;;;36.30;20.13;;;;;;;;;;5027891;28;20194;-68
2023/01/25 02:32:57;;;;;;;33.50;19.93;;;;;;;;;;5034898;28;20246;-68
2023/01/25 02:35:36;;;;;;;35.27;19.57;;;;;;;;;;5028905;28;20178;-67
2023/01/25 02:38:02;;;;;;;34.33;19.50;;;;;;;;;;5028844;28;20183;-67
2023/01/25 02:40:30;;;;;;;36.70;21.00;;;;;;;;;;5027888;28;20261;-68
2023/01/25 02:42:55;;;;;;;38.30;20.90;;;;;;;;;;5026317;28;20268;-69
2023/01/25 02:45:26;;;;;;;37.73;20.70;;;;;;;;;;5040101;28;20265;-68
2023/01/25 02:47:51;;;;;;;36.77;21.40;;;;;;;;;;5032357;28;20186;-68
2023/01/25 02:50:17;;;;;;;35.10;21.50;;;;;;;;;;5040873;28;20244;-68
2023/01/25 02:52:42;;;;;;;38.20;21.33;;;;;;;;;;5020949;28;20210;-69
2023/01/25 02:55:08;;;;;;;37.60;21.20;;;;;;;;;;5042054;28;20289;-68
2023/01/25 02:57:33;;;;;;;37.20;21.47;;;;;;;;;;5019371;28;20590;-68
2023/01/25 02:59:59;;;;;;;35.63;21.07;;;;;;;;;;5029754;28;20244;-68
2023/01/25 03:02:24;;;;;;;38.90;22.40;;;;;;;;;;5024541;28;20244;-68
2023/01/25 03:04:50;;;;;;;35.30;20.93;;;;;;;;;;5028780;28;20194;-68
2023/01/25 03:07:15;;;;;;;43.07;22.60;;;;;;;;;;5042755;28;20275;-68
2023/01/25 03:09:40;;;;;;;39.87;21.77;;;;;;;;;;5038220;28;20186;-68
2023/01/25 03:12:06;;;;;;;38.47;21.73;;;;;;;;;;5029993;28;20623;-68
2023/01/25 03:14:31;;;;;;;39.67;22.67;;;;;;;;;;5030856;28;20213;-68
2023/01/25 03:16:57;;;;;;;38.43;21.60;;;;;;;;;;5033106;28;20182;-68
2023/01/25 03:19:22;;;;;;;39.90;23.77;;;;;;;;;;5034695;28;20194;-68
2023/01/25 03:21:47;;;;;;;41.57;23.57;;;;;;;;;;5022226;28;20646;-68
2023/01/25 03:24:13;;;;;;;41.87;23.17;;;;;;;;;;5025416;28;20306;-68
2023/01/25 03:29:22;;;;;;;42.47;23.67;;;;;;;;;;5022554;28;20193;-68
2023/01/25 03:31:47;;;;;;;40.40;22.67;;;;;;;;;;5028897;28;20214;-68
2023/01/25 03:34:13;;;;;;;42.93;23.70;;;;;;;;;;5027949;28;20205;-68
2023/01/25 03:36:38;;;;;;;43.63;23.93;;;;;;;;;;5030845;28;20856;-68
2023/01/25 03:39:03;;;;;;;42.47;24.30;;;;;;;;;;5023697;28;20255;-68
2023/01/25 03:41:29;;;;;;;41.03;23.40;;;;;;;;;;5037466;28;20190;-67
2023/01/25 03:43:54;;;;;;;43.37;24.27;;;;;;;;;;5047483;28;20292;-67
2023/01/25 03:46:19;;;;;;;37.60;21.70;;;;;;;;;;5025119;28;20657;-67
2023/01/25 03:48:45;;;;;;;42.00;23.00;;;;;;;;;;5041314;28;20193;-67
2023/01/25 03:51:11;;;;;;;44.07;23.80;;;;;;;;;;5039234;28;20205;-67
2023/01/25 03:53:36;;;;;;;41.60;22.43;;;;;;;;;;5029999;28;20269;-67
2023/01/25 03:56:07;;;;;;;44.23;24.43;;;;;;;;;;5027104;28;20210;-70
2023/01/25 03:58:32;;;;;;;42.60;23.23;;;;;;;;;;5034419;28;20186;-68
2023/01/25 04:00:59;;;;;;;42.93;23.37;;;;;;;;;;5038537;28;20595;-67
2023/01/25 04:03:25;;;;;;;43.03;23.53;;;;;;;;;;5022583;28;20201;-67
2023/01/25 04:05:54;;;;;;;44.23;24.57;;;;;;;;;;5038161;28;20244;-67
2023/01/25 04:08:21;;;;;;;45.00;24.83;;;;;;;;;;5027631;28;20198;-67
2023/01/25 04:10:54;;;;;;;41.93;24.23;;;;;;;;;;5029333;28;20286;-67
2023/01/25 04:13:23;;;;;;;50.10;25.57;;;;;;;;;;5014668;28;20198;-67
2023/01/25 04:15:49;;;;;;;45.97;24.63;;;;;;;;;;5035145;28;20236;-67
2023/01/25 04:18:15;;;;;;;48.07;26.20;;;;;;;;;;5023939;28;20225;-67
2023/01/25 04:20:41;;;;;;;43.80;24.63;;;;;;;;;;5034863;28;20193;-67
2023/01/25 04:23:08;;;;;;;44.53;24.37;;;;;;;;;;5031763;28;20244;-67
2023/01/25 04:25:33;;;;;;;46.50;25.60;;;;;;;;;;5029444;28;20251;-67
2023/01/25 04:27:59;;;;;;;47.07;26.13;;;;;;;;;;5030456;28;20633;-67
2023/01/25 04:30:24;;;;;;;50.63;26.20;;;;;;;;;;5019009;28;20221;-67
2023/01/25 04:32:50;;;;;;;45.27;25.10;;;;;;;;;;5027048;28;20222;-67
2023/01/25 04:35:15;;;;;;;47.53;25.70;;;;;;;;;;5030559;28;20324;-67
2023/01/25 04:37:41;;;;;;;46.07;26.00;;;;;;;;;;5021490;28;20193;-67
2023/01/25 04:40:07;;;;;;;42.00;23.00;;;;;;;;;;5029879;28;20201;-67
2023/01/25 04:42:33;;;;;;;46.20;25.33;;;;;;;;;;5028655;28;20192;-67
2023/01/25 04:44:58;;;;;;;44.97;25.27;;;;;;;;;;5029947;28;20273;-67
2023/01/25 04:47:24;;;;;;;41.30;23.90;;;;;;;;;;5027837;28;20837;-67
2023/01/25 04:49:49;;;;;;;37.43;21.33;;;;;;;;;;5036472;28;20424;-67
2023/01/25 04:52:15;;;;;;;42.37;24.00;;;;;;;;;;5037636;28;20218;-68
2023/01/25 04:54:42;;;;;;;38.27;22.23;;;;;;;;;;5031068;28;20692;-67
2023/01/25 04:57:08;;;;;;;41.57;22.33;;;;;;;;;;5022220;28;20236;-68
2023/01/25 04:59:33;;;;;;;41.33;22.97;;;;;;;;;;5022859;28;20563;-67
2023/01/25 05:01:59;;;;;;;37.73;22.07;;;;;;;;;;5029486;28;20284;-67
2023/01/25 05:04:24;;;;;;;35.73;19.97;;;;;;;;;;5024190;28;20626;-67
2023/01/25 05:06:49;;;;;;;38.83;22.67;;;;;;;;;;5018165;28;20233;-68
2023/01/25 05:09:16;;;;;;;39.50;22.27;;;;;;;;;;5029058;28;20248;-68
2023/01/25 05:11:41;;;;;;;40.20;22.83;;;;;;;;;;5027626;28;20214;-68
2023/01/25 05:14:07;;;;;;;40.17;22.30;;;;;;;;;;5021138;28;20210;-68
2023/01/25 05:16:32;;;;;;;37.90;21.57;;;;;;;;;;5016739;28;20190;-68
2023/01/25 05:18:57;;;;;;;40.80;22.83;;;;;;;;;;5015215;28;20191;-68
2023/01/25 05:24:07;;;;;;;38.00;20.73;;;;;;;;;;5028379;28;20244;-68
2023/01/25 05:29:16;;;;;;;35.17;20.80;;;;;;;;;;5022219;28;20186;-68
2023/01/25 05:31:42;;;;;;;38.70;22.13;;;;;;;;;;5037601;28;20255;-68
2023/01/25 05:34:08;;;;;;;39.80;22.83;;;;;;;;;;5039700;28;20688;-68
2023/01/25 05:36:33;;;;;;;38.60;21.90;;;;;;;;;;5040074;28;20243;-68
2023/01/25 05:38:59;;;;;;;38.40;22.50;;;;;;;;;;5025586;28;20194;-68
2023/01/25 05:41:24;;;;;;;40.93;23.53;;;;;;;;;;5017580;28;20218;-67
2023/01/25 05:43:50;;;;;;;37.47;22.40;;;;;;;;;;5019702;28;20202;-67
2023/01/25 05:46:15;;;;;;;37.87;22.23;;;;;;;;;;5028763;28;20225;-67
2023/01/25 05:48:40;;;;;;;38.67;23.10;;;;;;;;;;5031371;28;20200;-67
2023/01/25 05:51:06;;;;;;;41.50;23.90;;;;;;;;;;5030005;28;20248;-67
2023/01/25 05:53:31;;;;;;;39.07;23.27;;;;;;;;;;5032326;28;20208;-68
2023/01/25 05:56:06;;;;;;;43.93;23.07;;;;;;;;;;5033700;28;20193;-68
2023/01/25 05:58:31;;;;;;;39.70;22.50;;;;;;;;;;5016876;28;20201;-67
2023/01/25 06:01:00;;;;;;;39.07;22.03;;;;;;;;;;5024635;28;20202;-67
2023/01/25 06:03:25;;;;;;;41.07;23.13;;;;;;;;;;5033075;28;20197;-67
2023/01/25 06:05:58;;;;;;;44.57;24.67;;;;;;;;;;5039959;28;20208;-68
2023/01/25 06:08:24;;;;;;;44.40;24.10;;;;;;;;;;5022747;28;20194;-68
2023/01/25 06:10:49;;;;;;;44.23;24.30;;;;;;;;;;5031787;28;20774;-68
2023/01/25 06:13:15;;;;;;;43.67;23.83;;;;;;;;;;5017024;28;20198;-67
2023/01/25 06:15:41;;;;;;;43.03;24.80;;;;;;;;;;5015505;28;20195;-67
2023/01/25 06:18:06;;;;;;;42.47;24.10;;;;;;;;;;5025927;28;20631;-68
2023/01/25 06:20:32;;;;;;;45.60;25.23;;;;;;;;;;5032263;28;20584;-68
2023/01/25 06:22:58;;;;;;;41.80;23.73;;;;;;;;;;5022594;28;20197;-68
2023/01/25 06:25:23;;;;;;;44.00;24.43;;;;;;;;;;5033723;28;20460;-66
2023/01/25 06:27:48;;;;;;;44.50;25.13;;;;;;;;;;5040665;28;20233;-67
2023/01/25 06:30:14;;;;;;;43.67;25.97;;;;;;;;;;5042224;28;20189;-67
2023/01/25 06:32:39;;;;;;;38.37;24.47;;;;;;;;;;5044669;28;20641;-67
2023/01/25 06:35:05;;;;;;;44.63;24.90;;;;;;;;;;5047359;28;20641;-67
2023/01/25 06:37:30;;;;;;;41.53;24.60;;;;;;;;;;5044697;28;20194;-67
2023/01/25 06:39:56;;;;;;;45.63;25.27;;;;;;;;;;5039099;28;20196;-67
2023/01/25 06:42:24;;;;;;;47.70;27.00;;;;;;;;;;5040625;28;20649;-67
2023/01/25 06:44:50;;;;;;;43.03;25.30;;;;;;;;;;5043678;28;20199;-67
2023/01/25 06:47:15;;;;;;;47.43;26.93;;;;;;;;;;5046780;28;20534;-67
2023/01/25 06:49:40;;;;;;;44.37;25.10;;;;;;;;;;5036782;28;20203;-67
2023/01/25 06:52:06;;;;;;;40.77;22.97;;;;;;;;;;5035342;28;20210;-67
2023/01/25 06:54:32;;;;;;;43.03;24.07;;;;;;;;;;5033416;28;20232;-67
2023/01/25 06:57:03;;;;;;;41.43;23.57;;;;;;;;;;5028762;28;20223;-68
2023/01/25 06:59:28;;;;;;;44.00;25.50;;;;;;;;;;5031704;28;20632;-67
2023/01/25 07:01:53;;;;;;;46.07;26.27;;;;;;;;;;5022660;28;20706;-68
2023/01/25 07:04:19;;;;;;;42.77;23.87;;;;;;;;;;5025183;28;20194;-67
2023/01/25 07:06:44;;;;;;;44.57;24.97;;;;;;;;;;5029641;28;20278;-68
2023/01/25 07:09:12;;;;;;;40.23;22.43;;;;;;;;;;5042712;28;20197;-68
2023/01/25 07:11:37;;;;;;;47.93;25.60;;;;;;;;;;5040270;28;20295;-68
2023/01/25 07:14:03;;;;;;;46.63;26.30;;;;;;;;;;5033168;28;20263;-68
2023/01/25 07:16:35;;;;;;;44.20;24.93;;;;;;;;;;5045342;28;20239;-68
2023/01/25 07:19:09;;;;;;;43.07;24.73;;;;;;;;;;5030055;28;20194;-68
2023/01/25 07:21:35;;;;;;;44.67;25.60;;;;;;;;;;5019808;28;20409;-67
2023/01/25 07:24:04;;;;;;;44.40;25.80;;;;;;;;;;5028719;28;20251;-67
2023/01/25 07:26:30;;;;;;;47.90;26.33;;;;;;;;;;5038600;28;20264;-67
2023/01/25 07:28:56;;;;;;;41.20;24.53;;;;;;;;;;5028600;28;20339;-67
2023/01/25 07:31:22;;;;;;;48.03;27.27;;;;;;;;;;5030147;28;20629;-67
2023/01/25 07:33:49;;;;;;;46.53;25.97;;;;;;;;;;5036540;28;20561;-67
2023/01/25 07:36:15;;;;;;;43.90;24.77;;;;;;;;;;5031858;28;20277;-67
2023/01/25 07:38:41;;;;;;;45.13;24.90;;;;;;;;;;5035262;28;20605;-67
2023/01/25 07:41:06;;;;;;;45.30;23.70;;;;;;;;;;5036217;28;20303;-67
2023/01/25 07:43:32;;;;;;;46.77;25.17;;;;;;;;;;5032673;28;20577;-67
2023/01/25 07:46:06;;;;;;;43.93;24.37;;;;;;;;;;5027671;28;20577;-67
2023/01/25 07:48:32;;;;;;;43.17;23.50;;;;;;;;;;5036898;28;20198;-67
2023/01/25 07:51:11;;;;;;;44.20;23.10;;;;;;;;;;5036127;28;20217;-67
2023/01/25 07:53:41;;;;;;;39.40;21.60;;;;;;;;;;5028258;28;20195;-67
2023/01/25 07:56:08;;;;;;;47.03;24.50;;;;;;;;;;5030720;28;20320;-67
2023/01/25 07:58:34;;;;;;;46.13;23.60;;;;;;;;;;5029795;28;20194;-67
2023/01/25 08:01:14;;;;;;;42.57;22.53;;;;;;;;;;5036478;28;20216;-68
2023/01/25 08:03:40;;;;;;;46.50;24.40;;;;;;;;;;5034803;28;21584;-67
2023/01/25 08:06:06;;;;;;;51.47;26.67;;;;;;;;;;5038010;28;20193;-68
2023/01/25 08:08:37;;;;;;;45.50;25.43;;;;;;;;;;5015002;28;20205;-68
2023/01/25 08:11:09;;;;;;;46.17;25.77;;;;;;;;;;5027804;28;20234;-68
2023/01/25 08:13:35;;;;;;;43.83;24.37;;;;;;;;;;5032274;28;20186;-68
2023/01/25 08:16:00;;;;;;;45.47;25.03;;;;;;;;;;5023922;28;20511;-68
2023/01/25 08:18:26;;;;;;;44.47;25.57;;;;;;;;;;5027847;28;20563;-68
2023/01/25 08:20:51;;;;;;;48.50;26.57;;;;;;;;;;5023860;28;20242;-68
2023/01/25 08:23:19;;;;;;;43.37;24.73;;;;;;;;;;5026662;28;20669;-68
2023/01/25 08:25:45;;;;;;;48.53;26.40;;;;;;;;;;5027959;28;20689;-68
2023/01/25 08:28:10;;;;;;;45.23;25.40;;;;;;;;;;5033452;28;20182;-68
2023/01/25 08:30:35;;;;;;;41.87;24.73;;;;;;;;;;5029790;28;20195;-68
2023/01/25 08:33:01;;;;;;;43.47;25.20;;;;;;;;;;5025847;28;20217;-68
2023/01/25 08:35:26;;;;;;;43.57;24.80;;;;;;;;;;5021947;28;20198;-68
2023/01/25 08:37:51;;;;;;;47.03;25.27;;;;;;;;;;5029048;28;20205;-68
2023/01/25 08:40:17;;;;;;;44.63;24.90;;;;;;;;;;5016140;28;20237;-69
2023/01/25 08:42:42;;;;;;;46.17;25.67;;;;;;;;;;5015002;28;20190;-68
2023/01/25 08:45:09;;;;;;;42.60;24.73;;;;;;;;;;5022282;28;20323;-68
2023/01/25 08:47:34;;;;;;;47.47;25.63;;;;;;;;;;5029224;28;20182;-68
2023/01/25 08:50:00;;;;;;;47.60;24.97;;;;;;;;;;5022314;28;20220;-68
2023/01/25 08:52:25;;;;;;;46.30;25.90;;;;;;;;;;5021467;28;20210;-67
2023/01/25 08:54:50;;;;;;;46.50;25.17;;;;;;;;;;5020929;28;20553;-67
2023/01/25 08:57:16;;;;;;;47.07;24.87;;;;;;;;;;5022748;28;20253;-68
2023/01/25 08:59:41;;;;;;;46.13;24.97;;;;;;;;;;5017523;28;20737;-69
2023/01/25 09:02:10;;;;;;;43.60;24.33;;;;;;;;;;5022505;28;20607;-68
2023/01/25 09:04:35;;;;;;;46.80;25.13;;;;;;;;;;5024822;28;20205;-68
2023/01/25 09:07:01;;;;;;;43.17;24.37;;;;;;;;;;5027244;28;20194;-68
2023/01/25 09:09:28;;;;;;;44.87;24.63;;;;;;;;;;5025966;28;20401;-68
2023/01/25 09:11:54;;;;;;;46.97;25.63;;;;;;;;;;5027727;28;20232;-68
2023/01/25 09:14:19;;;;;;;44.23;24.20;;;;;;;;;;5021676;28;20208;-68
2023/01/25 09:16:45;;;;;;;47.90;26.03;;;;;;;;;;5018057;28;20206;-68
2023/01/25 09:19:10;;;;;;;45.17;24.93;;;;;;;;;;5016485;28;20266;-68
2023/01/25 09:21:36;;;;;;;45.53;25.37;;;;;;;;;;5022705;28;20262;-68
2023/01/25 09:24:01;;;;;;;47.80;25.37;;;;;;;;;;5020798;28;20397;-68
2023/01/25 09:26:27;;;;;;;43.03;24.33;;;;;;;;;;5032881;28;20558;-67
2023/01/25 09:28:53;;;;;;;45.87;25.43;;;;;;;;;;5022262;28;20547;-68
2023/01/25 09:31:20;;;;;;;48.50;26.33;;;;;;;;;;5027286;28;20209;-67
2023/01/25 09:33:46;;;;;;;44.03;24.47;;;;;;;;;;5024932;28;20206;-68
2023/01/25 09:36:12;;;;;;;46.57;25.63;;;;;;;;;;5028023;28;20193;-68
2023/01/25 09:38:37;;;;;;;45.10;24.17;;;;;;;;;;5026597;28;20189;-68
2023/01/25 09:41:21;;;;;;;47.43;25.67;;;;;;;;;;5028438;28;20190;-68
2023/01/25 09:44:45;;;;;;;46.93;23.60;;;;;;;;;;5033624;28;20588;-67
2023/01/25 09:47:13;;;;;;;48.50;23.63;;;;;;;;;;5006865;28;20560;-67
2023/01/25 09:50:09;;;;;;;44.13;22.47;;;;;;;;;;4997342;28;20206;-68
2023/01/25 09:53:23;;;;;;;46.63;23.73;;;;;;;;;;5032323;28;20228;-68
2023/01/25 09:55:57;;;;;;;45.10;22.13;;;;;;;;;;5028574;28;20224;-67
2023/01/25 09:58:50;;;;;;;43.40;22.80;;;;;;;;;;5026757;28;20178;-67
2023/01/25 10:01:24;;;;;;;47.97;23.77;;;;;;;;;;5026025;28;20332;-67
2023/01/25 10:03:59;;;;;;;44.13;23.10;;;;;;;;;;5035146;28;20221;-67
2023/01/25 10:06:35;;;;;;;44.50;23.83;;;;;;;;;;5031343;28;20313;-67
2023/01/25 10:09:33;;;;;;;43.40;22.87;;;;;;;;;;5018179;28;20182;-69
2023/01/25 10:12:14;;;;;;;41.17;21.93;;;;;;;;;;5018843;28;20214;-67
2023/01/25 10:14:39;;;;;;;47.80;23.50;;;;;;;;;;5033019;28;20564;-68
2023/01/25 10:17:13;;;;;;;45.63;24.57;;;;;;;;;;5038466;28;20190;-67
2023/01/25 10:20:06;;;;;;;44.60;24.87;;;;;;;;;;5039123;28;20426;-68
2023/01/25 10:22:38;;;;;;;43.93;23.10;;;;;;;;;;5024542;28;20270;-68
2023/01/25 10:25:14;;;;;;;44.90;24.47;;;;;;;;;;5022063;28;20243;-68
2023/01/25 10:27:57;;;;;;;45.27;24.40;;;;;;;;;;5028250;28;20265;-68
2023/01/25 10:30:26;;;;;;;46.83;24.97;;;;;;;;;;5024074;28;20201;-67
2023/01/25 10:32:56;;;;;;;45.30;24.23;;;;;;;;;;5025380;28;20210;-68
2023/01/25 10:35:28;;;;;;;45.70;26.00;;;;;;;;;;5023643;28;20194;-68
2023/01/25 10:37:55;;;;;;;46.10;25.53;;;;;;;;;;5027995;28;20269;-68
2023/01/25 10:40:23;;;;;;;46.03;26.33;;;;;;;;;;5025412;28;20183;-67
2023/01/25 10:42:51;;;;;;;45.77;25.70;;;;;;;;;;5029714;28;20182;-68
2023/01/25 10:45:17;;;;;;;42.10;24.13;;;;;;;;;;5025444;28;20186;-69
2023/01/25 10:47:46;;;;;;;45.97;26.50;;;;;;;;;;5029567;28;20201;-68
2023/01/25 10:50:37;;;;;;;46.17;25.50;;;;;;;;;;5027543;28;20352;-68
2023/01/25 10:53:03;;;;;;;43.70;24.50;;;;;;;;;;5030992;28;20588;-68
2023/01/25 10:55:28;;;;;;;43.07;24.73;;;;;;;;;;5021237;28;20186;-68
2023/01/25 10:57:56;;;;;;;43.77;24.97;;;;;;;;;;5027714;28;20261;-68
2023/01/25 11:00:38;;;;;;;38.67;22.17;;;;;;;;;;5022163;28;20244;-68
2023/01/25 11:03:04;;;;;;;42.57;23.57;;;;;;;;;;5023906;28;20204;-68
2023/01/25 11:05:36;;;;;;;43.43;24.63;;;;;;;;;;5028066;28;20220;-68
2023/01/25 11:08:24;;;;;;;41.93;23.73;;;;;;;;;;5045108;28;20558;-68
2023/01/25 11:10:50;;;;;;;41.97;22.90;;;;;;;;;;5044711;28;20189;-68
2023/01/25 11:13:18;;;;;;;42.00;23.03;;;;;;;;;;5039800;28;20490;-68
2023/01/25 11:16:23;;;;;;;46.80;24.43;;;;;;;;;;5026899;28;20259;-68
2023/01/25 11:18:54;;;;;;;43.00;22.50;;;;;;;;;;5010642;28;20197;-68
2023/01/25 11:21:24;;;;;;;43.27;22.47;;;;;;;;;;5046696;28;20185;-68
2023/01/25 11:24:10;;;;;;;43.07;22.60;;;;;;;;;;5038783;28;20603;-68
2023/01/25 11:26:37;;;;;;;44.07;22.43;;;;;;;;;;5023288;28;20233;-68
2023/01/25 11:29:18;;;;;;;42.40;23.10;;;;;;;;;;5024216;28;20193;-67
2023/01/25 11:31:46;;;;;;;43.93;24.03;;;;;;;;;;5013491;28;20234;-68
2023/01/25 11:34:15;;;;;;;41.10;22.93;;;;;;;;;;5024397;28;20198;-67
2023/01/25 11:37:05;;;;;;;40.70;22.90;;;;;;;;;;5018970;28;20202;-67
2023/01/25 11:39:42;;;;;;;40.60;22.53;;;;;;;;;;5026682;28;20208;-68
2023/01/25 11:42:39;;;;;;;41.67;23.30;;;;;;;;;;5026790;28;20186;-68
2023/01/25 11:45:34;;;;;;;41.47;22.30;;;;;;;;;;5022528;28;20210;-68
2023/01/25 11:48:29;;;;;;;41.17;20.27;;;;;;;;;;5026360;28;20206;-68
2023/01/25 11:51:04;;;;;;;45.73;22.17;;;;;;;;;;5023184;28;20187;-69
2023/01/25 11:54:26;;;;;;;43.40;22.13;;;;;;;;;;5031136;28;20185;-68
2023/01/25 11:57:03;;;;;;;41.77;20.73;;;;;;;;;;5004695;28;20198;-68
2023/01/25 11:59:35;;;;;;;39.80;21.47;;;;;;;;;;5005552;28;20526;-68
2023/01/25 12:02:35;;;;;;;43.00;23.10;;;;;;;;;;5016040;28;20597;-68
2023/01/25 12:05:03;;;;;;;42.50;22.90;;;;;;;;;;5009934;28;20205;-69
2023/01/25 12:07:47;;;;;;;44.77;23.57;;;;;;;;;;5046645;28;20181;-69
2023/01/25 12:10:26;;;;;;;44.13;23.70;;;;;;;;;;5018105;28;20666;-68
2023/01/25 12:13:39;;;;;;;45.27;23.93;;;;;;;;;;5011437;28;20217;-69
2023/01/25 12:16:31;;;;;;;46.23;23.20;;;;;;;;;;5024273;28;20202;-69
2023/01/25 12:19:16;;;;;;;47.10;24.67;;;;;;;;;;5031773;28;20564;-68
2023/01/25 12:21:59;;;;;;;45.80;24.60;;;;;;;;;;5019849;28;20206;-68
2023/01/25 12:24:42;;;;;;;44.07;24.57;;;;;;;;;;5024455;28;20182;-69
2023/01/25 12:27:33;;;;;;;46.40;25.33;;;;;;;;;;5029988;28;20233;-68
2023/01/25 12:30:21;;;;;;;46.33;23.57;;;;;;;;;;5030065;28;20186;-69
2023/01/25 12:32:56;;;;;;;44.50;24.03;;;;;;;;;;5027023;28;20573;-68
2023/01/25 12:35:42;;;;;;;41.20;24.57;;;;;;;;;;5026701;28;20285;-68
2023/01/25 12:38:24;;;;;;;42.30;23.03;;;;;;;;;;5017745;28;20392;-67
2023/01/25 12:41:16;;;;;;;42.87;23.53;;;;;;;;;;5029030;28;20669;-68
2023/01/25 12:44:10;;;;;;;40.63;22.73;;;;;;;;;;5013109;28;20669;-68
2023/01/25 12:47:09;;;;;;;45.63;24.43;;;;;;;;;;5005323;28;20631;-68
2023/01/25 12:49:47;;;;;;;42.53;23.30;;;;;;;;;;5029349;28;20187;-70
2023/01/25 12:52:44;;;;;;;46.47;24.77;;;;;;;;;;5032350;28;20332;-69
2023/01/25 12:55:16;;;;;;;43.63;23.90;;;;;;;;;;5028894;28;20194;-69
2023/01/25 12:58:00;;;;;;;45.70;23.93;;;;;;;;;;5033796;28;20185;-69
2023/01/25 13:00:47;;;;;;;44.63;24.60;;;;;;;;;;5021578;28;20225;-69
2023/01/25 13:03:39;;;;;;;45.53;25.43;;;;;;;;;;5032911;28;20188;-67
2023/01/25 13:06:21;;;;;;;49.37;26.00;;;;;;;;;;5027160;28;20585;-68
2023/01/25 13:08:56;;;;;;;49.03;25.23;;;;;;;;;;5045324;28;20189;-68
2023/01/25 13:11:38;;;;;;;43.90;24.40;;;;;;;;;;5040557;28;20213;-68
2023/01/25 13:14:16;;;;;;;42.77;24.00;;;;;;;;;;5015233;28;20181;-70
2023/01/25 13:16:50;;;;;;;48.03;25.20;;;;;;;;;;5030928;28;20779;-70
2023/01/25 13:19:28;;;;;;;48.20;24.77;;;;;;;;;;5039294;28;20927;-69
2023/01/25 13:21:58;;;;;;;48.77;25.80;;;;;;;;;;5034386;28;20185;-68
2023/01/25 13:24:26;;;;;;;47.73;25.20;;;;;;;;;;5029265;28;20293;-68
2023/01/25 13:26:52;;;;;;;44.23;24.37;;;;;;;;;;5026668;28;20232;-68
2023/01/25 13:29:33;;;;;;;47.33;25.23;;;;;;;;;;5026197;28;20175;-68
2023/01/25 13:31:59;;;;;;;48.57;24.73;;;;;;;;;;5049978;28;20212;-68
2023/01/25 13:34:41;;;;;;;46.20;24.40;;;;;;;;;;5026823;28;20182;-69
2023/01/25 13:37:20;;;;;;;48.73;24.83;;;;;;;;;;5001644;28;20198;-69
2023/01/25 13:39:54;;;;;;;50.37;24.23;;;;;;;;;;5027868;28;20185;-69
2023/01/25 13:42:23;;;;;;;47.70;23.37;;;;;;;;;;5021724;28;20582;-69
2023/01/25 13:45:01;;;;;;;47.80;24.37;;;;;;;;;;5028044;28;20186;-67
2023/01/25 13:47:36;;;;;;;49.83;24.73;;;;;;;;;;5027810;28;20189;-68
2023/01/25 13:50:26;;;;;;;47.87;23.53;;;;;;;;;;5034382;28;20185;-68
2023/01/25 13:52:59;;;;;;;53.20;24.63;;;;;;;;;;5036915;28;20202;-68
2023/01/25 13:55:25;;;;;;;50.40;26.93;;;;;;;;;;5026864;28;20267;-68
2023/01/25 13:57:53;;;;;;;50.93;26.30;;;;;;;;;;5037850;28;20284;-68
2023/01/25 14:00:19;;;;;;;50.63;25.93;;;;;;;;;;5039555;28;20210;-68
2023/01/25 14:02:51;;;;;;;50.63;26.67;;;;;;;;;;5041423;28;20188;-69
2023/01/25 14:05:19;;;;;;;53.03;26.33;;;;;;;;;;5030345;28;20209;-68
2023/01/25 14:07:47;;;;;;;54.77;26.77;;;;;;;;;;5038538;28;20186;-68
2023/01/25 14:10:25;;;;;;;53.60;27.63;;;;;;;;;;5031411;28;20548;-68
2023/01/25 14:12:53;;;;;;;53.40;27.63;;;;;;;;;;5028914;28;20233;-69
2023/01/25 14:15:28;;;;;;;51.57;26.23;;;;;;;;;;5026211;28;20186;-68
2023/01/25 14:18:14;;;;;;;52.13;26.70;;;;;;;;;;5028733;28;20239;-68
2023/01/25 14:20:43;;;;;;;51.70;25.87;;;;;;;;;;5027839;28;20672;-68
2023/01/25 14:23:29;;;;;;;57.17;27.63;;;;;;;;;;5016148;28;20733;-67
2023/01/25 14:25:57;;;;;;;53.37;25.63;;;;;;;;;;5030469;28;20236;-68
2023/01/25 14:28:24;;;;;;;54.23;26.63;;;;;;;;;;5036348;28;20183;-68
2023/01/25 14:30:53;;;;;;;54.50;26.40;;;;;;;;;;5027622;28;20272;-69
2023/01/25 14:33:23;;;;;;;54.70;26.53;;;;;;;;;;5038248;28;20266;-69
2023/01/25 14:35:50;;;;;;;57.00;27.27;;;;;;;;;;5030466;28;20566;-68
2023/01/25 14:38:21;;;;;;;53.17;27.03;;;;;;;;;;5029798;28;20182;-68
2023/01/25 14:40:46;;;;;;;55.70;27.23;;;;;;;;;;5022607;28;20537;-68
2023/01/25 14:43:13;;;;;;;54.33;26.83;;;;;;;;;;5025492;28;20186;-68
2023/01/25 14:45:38;;;;;;;53.40;26.13;;;;;;;;;;5043550;28;20201;-69